createdAt,value
2018-11-11T00:00:52.409Z,13.37
2018-11-11T00:02:54.866Z,13.67
2018-11-11T00:04:57.042Z,12.63
2018-11-11T00:06:59.328Z,11.80
2018-11-11T00:09:01.591Z,14.67
2018-11-11T00:11:04.163Z,13.40
2018-11-11T00:13:06.367Z,13.40
2018-11-11T00:15:10.186Z,14.73
2018-11-11T00:17:12.398Z,13.03
2018-11-11T00:19:15.133Z,12.63
2018-11-11T00:21:17.334Z,13.83
2018-11-11T00:23:19.508Z,15.83
2018-11-11T00:25:21.697Z,14.40
2018-11-11T00:27:23.876Z,13.07
2018-11-11T00:29:26.081Z,15.40
2018-11-11T00:31:28.293Z,13.30
2018-11-11T00:33:30.502Z,14.27
2018-11-11T00:35:32.857Z,14.77
2018-11-11T00:37:35.056Z,13.70
2018-11-11T00:39:37.299Z,11.87
2018-11-11T00:41:39.758Z,13.70
2018-11-11T00:43:41.953Z,13.60
2018-11-11T00:45:44.155Z,14.77
2018-11-11T00:47:46.387Z,11.73
2018-11-11T00:49:48.631Z,15.97
2018-11-11T00:51:50.813Z,19.23
2018-11-11T00:53:53.035Z,16.60
2018-11-11T00:55:55.233Z,18.00
2018-11-11T00:57:57.530Z,14.83
2018-11-11T00:59:59.730Z,20.27
2018-11-11T01:02:01.902Z,18.43
2018-11-11T01:04:04.370Z,15.33
2018-11-11T01:06:06.808Z,16.03
2018-11-11T01:08:08.983Z,18.27
2018-11-11T01:10:12.078Z,18.40
2018-11-11T01:12:14.426Z,18.30
2018-11-11T01:14:16.530Z,20.67
2018-11-11T01:16:18.729Z,22.20
2018-11-11T01:18:20.985Z,16.87
2018-11-11T01:20:23.198Z,17.90
2018-11-11T01:22:25.414Z,22.33
2018-11-11T01:24:27.645Z,16.23
2018-11-11T01:26:29.848Z,18.00
2018-11-11T01:28:32.044Z,19.87
2018-11-11T01:30:34.268Z,21.30
2018-11-11T01:32:36.701Z,21.40
2018-11-11T01:34:38.889Z,21.90
2018-11-11T01:36:41.190Z,18.70
2018-11-11T01:38:43.385Z,20.70
2018-11-11T01:40:45.554Z,22.50
2018-11-11T01:42:47.792Z,24.37
2018-11-11T01:44:49.979Z,21.20
2018-11-11T01:46:52.284Z,22.40
2018-11-11T01:48:54.466Z,26.07
2018-11-11T01:50:56.659Z,23.30
2018-11-11T01:52:58.869Z,22.67
2018-11-11T01:55:01.154Z,20.10
2018-11-11T01:57:03.370Z,19.13
2018-11-11T01:59:05.837Z,22.53
2018-11-11T02:01:08.054Z,23.83
2018-11-11T02:03:10.230Z,21.40
2018-11-11T02:05:13.174Z,20.40
2018-11-11T02:07:15.358Z,22.40
2018-11-11T02:09:17.516Z,28.37
2018-11-11T02:11:19.873Z,21.00
2018-11-11T02:13:22.070Z,20.97
2018-11-11T02:15:24.282Z,21.30
2018-11-11T02:17:26.521Z,23.57
2018-11-11T02:19:28.740Z,22.47
2018-11-11T02:21:30.984Z,24.93
2018-11-11T02:23:33.406Z,21.70
2018-11-11T02:28:07.349Z,21.60
2018-11-11T02:30:11.422Z,20.60
2018-11-11T02:32:13.671Z,23.23
2018-11-11T02:34:15.980Z,22.33
2018-11-11T02:36:18.216Z,24.80
2018-11-11T02:38:20.450Z,25.37
2018-11-11T02:40:22.612Z,23.73
2018-11-11T02:42:25.206Z,24.53
2018-11-11T02:44:27.390Z,22.27
2018-11-11T02:46:29.634Z,19.37
2018-11-11T02:48:31.834Z,23.40
2018-11-11T02:50:34.010Z,23.03
2018-11-11T02:52:36.162Z,21.17
2018-11-11T02:54:38.736Z,26.17
2018-11-11T02:56:40.901Z,24.43
2018-11-11T02:58:43.072Z,22.50
2018-11-11T03:00:45.337Z,25.97
2018-11-11T03:02:47.916Z,24.87
2018-11-11T03:04:50.115Z,21.03
2018-11-11T03:06:52.307Z,25.37
2018-11-11T03:08:54.473Z,24.27
2018-11-11T03:10:56.646Z,24.23
2018-11-11T03:12:58.811Z,23.43
2018-11-11T03:15:01.022Z,22.90
2018-11-11T03:17:03.190Z,26.63
2018-11-11T03:19:05.859Z,22.60
2018-11-11T03:21:08.000Z,21.43
2018-11-11T03:23:10.162Z,23.53
2018-11-11T03:25:13.655Z,24.73
2018-11-11T03:27:15.852Z,25.13
2018-11-11T03:29:18.006Z,27.00
2018-11-11T03:31:20.712Z,20.20
2018-11-11T03:33:23.057Z,22.60
2018-11-11T03:35:25.259Z,27.10
2018-11-11T03:37:27.690Z,22.63
2018-11-11T03:39:29.857Z,22.83
2018-11-11T03:41:32.057Z,23.23
2018-11-11T03:43:34.473Z,20.97
2018-11-11T03:45:36.659Z,22.37
2018-11-11T03:47:38.857Z,25.33
2018-11-11T03:49:41.286Z,28.73
2018-11-11T03:51:43.486Z,22.17
2018-11-11T03:53:45.670Z,26.40
2018-11-11T03:55:47.939Z,20.80
2018-11-11T03:57:50.166Z,24.73
2018-11-11T03:59:52.349Z,21.23
2018-11-11T04:01:54.602Z,27.73
2018-11-11T04:03:56.761Z,21.00
2018-11-11T04:05:58.907Z,22.50
2018-11-11T04:08:01.107Z,25.10
2018-11-11T04:10:03.948Z,21.03
2018-11-11T04:12:06.056Z,23.03
2018-11-11T04:14:08.842Z,23.53
2018-11-11T04:16:11.462Z,27.00
2018-11-11T04:18:13.644Z,22.73
2018-11-11T04:20:17.206Z,25.10
2018-11-11T04:22:20.006Z,26.80
2018-11-11T04:24:22.184Z,21.83
2018-11-11T04:26:24.354Z,25.63
2018-11-11T04:28:27.022Z,21.00
2018-11-11T04:30:29.265Z,20.93
2018-11-11T04:32:31.442Z,18.13
2018-11-11T04:34:33.629Z,21.90
2018-11-11T04:36:35.769Z,21.13
2018-11-11T04:38:37.959Z,18.97
2018-11-11T04:40:40.142Z,20.63
2018-11-11T04:42:42.305Z,17.40
2018-11-11T04:44:44.460Z,24.43
2018-11-11T04:46:46.619Z,20.43
2018-11-11T04:48:49.009Z,23.23
2018-11-11T04:50:51.204Z,19.73
2018-11-11T04:52:53.355Z,21.90
2018-11-11T04:54:55.506Z,22.83
2018-11-11T04:56:57.752Z,20.97
2018-11-11T04:59:00.258Z,18.90
2018-11-11T05:01:02.459Z,20.20
2018-11-11T05:03:04.781Z,19.03
2018-11-11T05:05:07.411Z,21.40
2018-11-11T05:07:09.749Z,21.60
2018-11-11T05:09:12.939Z,20.60
2018-11-11T05:11:15.343Z,18.17
2018-11-11T05:13:17.555Z,19.60
2018-11-11T05:15:19.726Z,21.30
2018-11-11T05:17:21.939Z,19.77
2018-11-11T05:19:24.171Z,20.67
2018-11-11T05:21:26.287Z,15.50
2018-11-11T05:23:29.043Z,16.63
2018-11-11T05:25:31.312Z,16.80
2018-11-11T05:27:33.569Z,15.83
2018-11-11T05:29:35.786Z,17.03
2018-11-11T05:31:37.947Z,18.00
2018-11-11T05:33:40.164Z,14.03
2018-11-11T05:35:42.395Z,16.40
2018-11-11T05:37:44.705Z,18.40
2018-11-11T05:39:46.889Z,21.40
2018-11-11T05:41:49.114Z,16.17
2018-11-11T05:43:51.287Z,20.00
2018-11-11T05:45:53.478Z,17.60
2018-11-11T05:47:55.697Z,15.40
2018-11-11T05:49:57.896Z,14.43
2018-11-11T05:52:00.093Z,16.33
2018-11-11T05:54:02.457Z,14.67
2018-11-11T05:56:04.639Z,15.47
2018-11-11T05:58:06.831Z,14.80
2018-11-11T06:00:10.930Z,14.93
2018-11-11T06:02:13.119Z,14.87
2018-11-11T06:04:15.327Z,14.70
2018-11-11T06:06:17.571Z,15.40
2018-11-11T06:08:19.757Z,18.20
2018-11-11T06:10:21.963Z,15.97
2018-11-11T06:12:24.421Z,13.53
2018-11-11T06:14:26.594Z,14.63
2018-11-11T06:16:28.782Z,15.17
2018-11-11T06:18:30.962Z,15.90
2018-11-11T06:20:33.223Z,12.53
2018-11-11T06:22:35.430Z,15.27
2018-11-11T06:24:37.761Z,12.60
2018-11-11T06:26:39.963Z,16.80
2018-11-11T06:28:42.172Z,17.90
2018-11-11T06:30:44.542Z,13.17
2018-11-11T06:32:46.724Z,13.80
2018-11-11T06:34:48.911Z,14.53
2018-11-11T06:36:51.262Z,12.30
2018-11-11T06:38:53.616Z,19.57
2018-11-11T06:40:55.805Z,16.17
2018-11-11T06:42:58.015Z,16.43
2018-11-11T06:45:00.194Z,13.50
2018-11-11T06:47:02.411Z,16.30
2018-11-11T06:49:04.738Z,14.17
2018-11-11T06:51:06.968Z,14.80
2018-11-11T06:53:09.235Z,15.80
2018-11-11T06:55:11.910Z,13.73
2018-11-11T06:57:14.091Z,16.93
2018-11-11T06:59:16.378Z,16.00
2018-11-11T07:01:18.542Z,13.63
2018-11-11T07:03:26.523Z,15.13
2018-11-11T07:05:29.550Z,15.23
2018-11-11T07:07:32.112Z,12.40
2018-11-11T07:09:34.272Z,12.63
2018-11-11T07:11:36.480Z,13.47
2018-11-11T07:13:38.650Z,12.50
2018-11-11T07:15:41.099Z,12.80
2018-11-11T07:17:43.289Z,13.10
2018-11-11T07:19:45.623Z,14.50
2018-11-11T07:21:47.819Z,12.30
2018-11-11T07:23:50.007Z,14.83
2018-11-11T07:25:52.206Z,15.93
2018-11-11T07:27:54.390Z,12.50
2018-11-11T07:29:56.602Z,12.00
2018-11-11T07:31:58.794Z,11.67
2018-11-11T07:34:01.000Z,12.27
2018-11-11T07:36:03.263Z,12.53
2018-11-11T07:38:05.382Z,11.17
2018-11-11T07:40:08.577Z,10.67
2018-11-11T07:42:10.828Z,10.77
2018-11-11T07:44:12.973Z,12.40
2018-11-11T07:46:15.158Z,9.70
2018-11-11T07:48:17.494Z,11.43
2018-11-11T07:50:19.694Z,12.40
2018-11-11T07:52:21.911Z,12.73
2018-11-11T07:54:24.128Z,11.60
2018-11-11T07:56:26.319Z,10.07
2018-11-11T07:58:28.525Z,13.53
2018-11-11T08:00:30.730Z,9.00
2018-11-11T08:02:32.928Z,10.93
2018-11-11T08:04:35.206Z,13.50
2018-11-11T08:06:37.427Z,12.13
2018-11-11T08:08:39.679Z,9.33
2018-11-11T08:10:47.521Z,10.73
2018-11-11T08:12:49.705Z,9.63
2018-11-11T08:14:51.909Z,9.70
2018-11-11T08:16:54.159Z,11.30
2018-11-11T08:18:56.258Z,10.23
2018-11-11T08:20:58.707Z,11.70
2018-11-11T08:23:00.894Z,10.63
2018-11-11T08:25:03.102Z,10.17
2018-11-11T08:27:05.408Z,10.97
2018-11-11T08:29:07.710Z,10.73
2018-11-11T08:31:09.989Z,9.70
2018-11-11T08:33:12.470Z,15.37
2018-11-11T08:35:14.638Z,10.70
2018-11-11T08:37:16.854Z,12.30
2018-11-11T08:39:19.532Z,10.00
2018-11-11T08:41:21.826Z,9.30
2018-11-11T08:43:24.122Z,10.80
2018-11-11T08:45:26.462Z,7.93
2018-11-11T08:47:28.710Z,9.70
2018-11-11T08:49:30.930Z,10.23
2018-11-11T08:51:33.193Z,9.47
2018-11-11T08:53:35.379Z,11.33
2018-11-11T08:55:37.580Z,9.03
2018-11-11T08:57:40.156Z,8.80
2018-11-11T08:59:42.344Z,9.97
2018-11-11T09:01:44.558Z,8.70
2018-11-11T09:03:46.862Z,10.60
2018-11-11T09:05:49.228Z,9.90
2018-11-11T09:07:51.618Z,9.47
2018-11-11T09:09:54.105Z,10.70
2018-11-11T09:11:56.306Z,11.53
2018-11-11T09:13:58.471Z,10.43
2018-11-11T09:16:00.765Z,9.47
2018-11-11T09:18:02.953Z,9.50
2018-11-11T09:20:05.433Z,12.40
2018-11-11T09:22:07.655Z,10.53
2018-11-11T09:24:09.843Z,11.63
2018-11-11T09:26:13.851Z,10.43
2018-11-11T09:28:16.368Z,13.33
2018-11-11T09:30:18.715Z,10.43
2018-11-11T09:32:20.979Z,13.83
2018-11-11T09:34:23.251Z,11.20
2018-11-11T09:36:25.451Z,12.00
2018-11-11T09:38:27.650Z,11.50
2018-11-11T09:40:29.899Z,10.47
2018-11-11T09:42:32.529Z,14.03
2018-11-11T09:44:34.808Z,10.90
2018-11-11T09:46:37.346Z,11.60
2018-11-11T09:48:39.626Z,13.73
2018-11-11T09:50:42.063Z,12.00
2018-11-11T09:52:44.489Z,12.27
2018-11-11T09:54:46.724Z,10.70
2018-11-11T09:56:49.001Z,12.73
2018-11-11T09:58:52.092Z,13.20
2018-11-11T10:00:59.033Z,12.67
2018-11-11T10:03:07.091Z,12.37
2018-11-11T10:06:12.629Z,9.70
2018-11-11T10:10:22.824Z,13.70
2018-11-11T10:12:31.832Z,11.70
2018-11-11T10:14:41.618Z,11.93
2018-11-11T10:16:54.073Z,11.80
2018-11-11T10:19:07.566Z,8.97
2018-11-11T10:21:15.328Z,12.07
2018-11-11T10:23:42.289Z,13.03
2018-11-11T10:25:51.369Z,11.33
2018-11-11T10:27:58.596Z,12.57
2018-11-11T10:30:06.308Z,11.87
2018-11-11T10:32:16.438Z,10.27
2018-11-11T10:35:22.136Z,13.17
2018-11-11T10:37:27.768Z,10.20
2018-11-11T10:39:33.276Z,10.90
2018-11-11T10:43:46.419Z,9.20
2018-11-11T10:45:54.279Z,12.50
2018-11-11T10:48:02.829Z,10.40
2018-11-11T10:50:07.467Z,10.40
2018-11-11T10:52:09.819Z,9.43
2018-11-11T10:54:12.299Z,10.73
2018-11-11T10:56:15.820Z,11.70
2018-11-11T10:58:19.441Z,8.93
2018-11-11T11:00:33.608Z,8.63
2018-11-11T11:02:41.707Z,11.40
2018-11-11T11:04:49.741Z,10.80
2018-11-11T11:06:57.835Z,10.20
2018-11-11T11:09:05.635Z,9.63
2018-11-11T11:11:07.933Z,8.60
2018-11-11T11:13:10.153Z,9.03
2018-11-11T11:15:12.592Z,9.27
2018-11-11T11:17:14.829Z,8.97
2018-11-11T11:19:17.064Z,11.67
2018-11-11T11:21:19.280Z,12.00
2018-11-11T11:23:21.812Z,9.27
2018-11-11T11:25:26.169Z,13.80
2018-11-11T11:27:28.566Z,8.47
2018-11-11T11:29:30.907Z,10.77
2018-11-11T11:31:34.467Z,8.70
2018-11-11T11:33:36.875Z,16.10
2018-11-11T11:35:39.260Z,7.83
2018-11-11T11:37:41.407Z,7.17
2018-11-11T11:39:43.907Z,7.97
2018-11-11T11:41:46.247Z,8.00
2018-11-11T11:43:48.512Z,7.00
2018-11-11T11:45:53.829Z,6.43
2018-11-11T11:47:56.205Z,7.60
2018-11-11T11:49:59.746Z,7.70
2018-11-11T11:52:02.090Z,11.13
2018-11-11T11:54:04.460Z,9.50
2018-11-11T11:56:06.729Z,6.20
2018-11-11T11:58:20.018Z,7.60
2018-11-11T12:00:23.610Z,7.10
2018-11-11T12:02:32.949Z,6.70
2018-11-11T12:04:35.333Z,5.87
2018-11-11T12:06:37.832Z,5.27
2018-11-11T12:08:40.170Z,6.37
2018-11-11T12:10:42.477Z,7.73
2018-11-11T12:12:44.801Z,6.63
2018-11-11T12:14:47.071Z,7.07
2018-11-11T12:16:49.448Z,6.23
2018-11-11T12:18:51.679Z,5.60
2018-11-11T12:20:53.896Z,6.70
2018-11-11T12:22:57.384Z,5.87
2018-11-11T12:24:59.653Z,6.87
2018-11-11T12:27:01.860Z,4.90
2018-11-11T12:29:04.373Z,6.00
2018-11-11T12:31:06.615Z,5.20
2018-11-11T12:33:08.843Z,5.90
2018-11-11T12:35:11.429Z,8.10
2018-11-11T12:37:13.640Z,5.17
2018-11-11T12:39:15.971Z,7.80
2018-11-11T12:41:18.058Z,7.30
2018-11-11T12:43:20.487Z,5.33
2018-11-11T12:45:22.863Z,5.63
2018-11-11T12:47:25.075Z,4.90
2018-11-11T12:49:27.468Z,7.33
2018-11-11T12:51:31.678Z,5.30
2018-11-11T12:53:34.035Z,8.77
2018-11-11T12:55:36.243Z,6.63
2018-11-11T12:57:38.596Z,5.57
2018-11-11T12:59:40.774Z,7.13
2018-11-11T13:01:43.207Z,5.60
2018-11-11T13:03:45.578Z,5.43
2018-11-11T13:05:48.195Z,4.90
2018-11-11T13:07:50.514Z,6.00
2018-11-11T13:09:52.952Z,4.83
2018-11-11T13:11:55.195Z,5.90
2018-11-11T13:13:57.369Z,7.53
2018-11-11T13:15:59.585Z,4.60
2018-11-11T13:18:01.787Z,4.03
2018-11-11T13:20:12.273Z,6.23
2018-11-11T13:22:14.963Z,7.23
2018-11-11T13:24:17.139Z,4.70
2018-11-11T13:26:20.263Z,4.07
2018-11-11T13:28:22.790Z,5.23
2018-11-11T13:30:25.180Z,7.00
2018-11-11T13:32:27.438Z,5.57
2018-11-11T13:34:30.103Z,5.07
2018-11-11T13:36:34.115Z,5.20
2018-11-11T13:38:37.238Z,4.27
2018-11-11T13:40:39.485Z,5.30
2018-11-11T13:42:41.742Z,4.30
2018-11-11T13:44:44.036Z,4.47
2018-11-11T13:46:46.356Z,4.10
2018-11-11T13:48:48.647Z,4.63
2018-11-11T13:50:51.073Z,4.23
2018-11-11T13:52:56.234Z,5.43
2018-11-11T13:54:59.534Z,4.93
2018-11-11T13:57:01.898Z,4.53
2018-11-11T13:59:04.202Z,4.60
2018-11-11T14:01:06.389Z,4.77
2018-11-11T14:03:08.690Z,4.60
2018-11-11T14:05:11.235Z,5.80
2018-11-11T14:07:13.462Z,7.97
2018-11-11T14:09:15.884Z,5.70
2018-11-11T14:11:18.179Z,9.37
2018-11-11T14:13:20.378Z,7.83
2018-11-11T14:15:23.825Z,4.30
2018-11-11T14:17:26.070Z,3.67
2018-11-11T14:19:28.654Z,4.10
2018-11-11T14:21:30.999Z,5.97
2018-11-11T14:40:47.291Z,6.43
2018-11-11T14:42:49.754Z,4.53
2018-11-11T14:44:52.106Z,4.80
2018-11-11T14:46:54.810Z,6.00
2018-11-11T14:48:57.026Z,5.50
2018-11-11T14:50:59.206Z,4.40
2018-11-11T14:53:01.756Z,4.47
2018-11-11T14:55:05.026Z,7.03
2018-11-11T14:57:07.260Z,4.33
2018-11-11T14:59:09.577Z,5.47
2018-11-11T15:01:11.828Z,4.97
2018-11-11T15:03:16.334Z,4.80
2018-11-11T15:05:18.543Z,4.77
2018-11-11T15:07:20.716Z,4.90
2018-11-11T15:09:23.068Z,4.80
2018-11-11T15:11:25.336Z,4.17
2018-11-11T15:13:28.276Z,4.57
2018-11-11T15:15:30.748Z,5.03
2018-11-11T15:17:32.923Z,6.40
2018-11-11T15:19:35.542Z,6.50
2018-11-11T15:21:37.474Z,5.50
2018-11-11T15:23:39.704Z,5.70
2018-11-11T15:25:41.901Z,6.70
2018-11-11T15:27:44.668Z,7.43
2018-11-11T15:29:47.924Z,7.40
2018-11-11T15:31:50.150Z,6.03
2018-11-11T15:33:52.635Z,6.60
2018-11-11T15:35:55.150Z,6.10
2018-11-11T15:37:57.417Z,6.50
2018-11-11T15:39:59.846Z,6.03
2018-11-11T15:42:05.425Z,4.67
2018-11-11T15:44:08.023Z,5.50
2018-11-11T15:46:10.692Z,8.30
2018-11-11T15:48:12.982Z,6.57
2018-11-11T15:50:16.459Z,9.13
2018-11-11T15:52:18.970Z,5.80
2018-11-11T15:54:21.667Z,7.17
2018-11-11T15:56:24.882Z,5.67
2018-11-11T15:58:30.555Z,6.37
2018-11-11T16:00:34.424Z,6.83
2018-11-11T16:02:36.787Z,5.00
2018-11-11T16:04:39.243Z,8.73
2018-11-11T16:06:41.520Z,5.30
2018-11-11T16:08:43.716Z,5.30
2018-11-11T16:10:45.963Z,5.47
2018-11-11T16:12:48.332Z,5.73
2018-11-11T16:14:50.563Z,7.17
2018-11-11T16:16:52.809Z,7.33
2018-11-11T16:18:55.017Z,7.40
2018-11-11T16:20:57.332Z,4.87
2018-11-11T16:23:01.206Z,6.20
2018-11-11T16:25:03.913Z,8.20
2018-11-11T16:27:06.207Z,5.00
2018-11-11T16:29:08.487Z,5.20
2018-11-11T16:31:10.776Z,5.70
2018-11-11T16:33:12.958Z,6.13
2018-11-11T16:35:16.148Z,4.97
2018-11-11T16:37:18.486Z,5.40
2018-11-11T16:39:20.878Z,6.67
2018-11-11T16:41:23.574Z,5.80
2018-11-11T16:43:27.319Z,5.70
2018-11-11T16:45:30.627Z,7.27
2018-11-11T16:47:32.862Z,5.20
2018-11-11T16:49:35.067Z,4.80
2018-11-11T16:51:37.877Z,8.10
2018-11-11T16:53:40.054Z,7.27
2018-11-11T16:55:42.260Z,5.20
2018-11-11T16:57:44.973Z,5.27
2018-11-11T16:59:47.208Z,6.10
2018-11-11T17:01:49.472Z,5.57
2018-11-11T17:03:54.240Z,6.50
2018-11-11T17:05:56.513Z,12.00
2018-11-11T17:07:58.856Z,9.87
2018-11-11T17:10:01.140Z,8.23
2018-11-11T17:12:03.364Z,6.07
2018-11-11T17:14:05.657Z,5.00
2018-11-11T17:16:07.954Z,5.57
2018-11-11T17:18:10.472Z,7.60
2018-11-11T17:20:14.244Z,6.10
2018-11-11T17:22:17.055Z,5.27
2018-11-11T17:24:19.195Z,5.93
2018-11-11T17:26:21.455Z,5.00
2018-11-11T17:28:23.863Z,6.13
2018-11-11T17:30:27.193Z,6.13
2018-11-11T17:32:29.583Z,4.50
2018-11-11T17:34:31.674Z,5.10
2018-11-11T17:36:34.205Z,7.10
2018-11-11T17:38:36.398Z,4.63
2018-11-11T17:40:38.817Z,4.60
2018-11-11T17:42:42.783Z,5.37
2018-11-11T17:44:44.999Z,9.43
2018-11-11T17:46:47.334Z,7.03
2018-11-11T17:48:50.216Z,9.40
2018-11-11T17:50:52.428Z,7.37
2018-11-11T17:52:54.738Z,4.63
2018-11-11T17:54:56.988Z,5.97
2018-11-11T17:56:59.639Z,5.20
2018-11-11T17:59:01.867Z,5.90
2018-11-11T18:01:04.289Z,5.70
2018-11-11T18:03:06.653Z,8.40
2018-11-11T18:05:10.104Z,7.80
2018-11-11T18:07:12.328Z,5.33
2018-11-11T18:09:14.565Z,6.90
2018-11-11T18:11:17.181Z,8.00
2018-11-11T18:13:19.431Z,9.00
2018-11-11T18:15:25.059Z,5.50
2018-11-11T18:17:27.356Z,5.43
2018-11-11T18:19:29.740Z,6.73
2018-11-11T18:21:31.985Z,6.67
2018-11-11T18:23:34.387Z,6.67
2018-11-11T18:25:43.434Z,7.67
2018-11-11T18:27:45.838Z,7.53
2018-11-11T18:29:48.008Z,5.10
2018-11-11T18:31:50.406Z,5.53
2018-11-11T18:33:58.273Z,5.60
2018-11-11T18:36:00.611Z,6.97
2018-11-11T18:38:04.345Z,7.73
2018-11-11T18:40:07.358Z,6.87
2018-11-11T18:42:09.568Z,7.07
2018-11-11T18:44:11.923Z,7.87
2018-11-11T18:46:14.178Z,6.87
2018-11-11T18:48:16.411Z,4.73
2018-11-11T18:50:22.128Z,6.60
2018-11-11T18:52:24.320Z,6.50
2018-11-11T18:54:26.571Z,9.53
2018-11-11T18:56:28.854Z,5.47
2018-11-11T18:58:31.068Z,6.23
2018-11-11T19:00:34.011Z,5.20
2018-11-11T19:02:36.692Z,7.17
2018-11-11T19:04:38.959Z,7.43
2018-11-11T19:06:41.182Z,10.27
2018-11-11T19:08:43.389Z,12.30
2018-11-11T19:10:55.366Z,9.20
2018-11-11T19:12:59.404Z,8.70
2018-11-11T19:15:02.773Z,13.43
2018-11-11T19:17:11.809Z,7.30
2018-11-11T19:19:20.009Z,6.70
2018-11-11T19:21:28.978Z,11.63
2018-11-11T19:23:46.167Z,8.60
2018-11-11T19:26:52.523Z,6.10
2018-11-11T19:31:30.235Z,7.83
2018-11-11T19:33:36.589Z,9.53
2018-11-11T19:35:54.184Z,6.83
2018-11-11T19:37:57.126Z,8.90
2018-11-11T19:40:04.566Z,7.83
2018-11-11T19:46:45.258Z,8.30
2018-11-11T19:49:14.001Z,8.97
2018-11-11T19:51:17.918Z,7.10
2018-11-11T19:53:21.839Z,8.57
2018-11-11T19:55:27.648Z,8.07
2018-11-11T19:57:30.086Z,7.90
2018-11-11T19:59:32.357Z,7.73
2018-11-11T20:01:34.870Z,8.57
2018-11-11T20:03:42.338Z,6.67
2018-11-11T20:05:47.010Z,7.57
2018-11-11T20:07:50.842Z,9.10
2018-11-11T20:09:54.451Z,7.30
2018-11-11T20:12:03.139Z,9.60
2018-11-11T20:14:09.192Z,6.47
2018-11-11T20:16:12.011Z,9.87
2018-11-11T20:18:14.363Z,9.27
2018-11-11T20:20:19.160Z,9.57
2018-11-11T20:22:21.444Z,7.47
2018-11-11T20:24:23.701Z,7.80
2018-11-11T20:26:40.483Z,5.90
2018-11-11T20:28:42.810Z,7.93
2018-11-11T20:30:57.904Z,6.40
2018-11-11T20:33:00.669Z,7.43
2018-11-11T20:35:02.872Z,10.13
2018-11-11T20:37:05.068Z,6.87
2018-11-11T20:39:08.876Z,8.27
2018-11-11T20:41:11.426Z,7.50
2018-11-11T20:43:13.852Z,8.23
2018-11-11T20:45:17.794Z,7.30
2018-11-11T20:47:20.094Z,8.43
2018-11-11T20:49:22.294Z,8.63
2018-11-11T20:51:24.484Z,8.03
2018-11-11T20:53:27.986Z,13.03
2018-11-11T20:55:33.367Z,9.40
2018-11-11T20:57:40.194Z,7.83
2018-11-11T20:59:48.569Z,8.00
2018-11-11T21:01:53.385Z,13.60
2018-11-11T21:03:56.449Z,15.83
2018-11-11T21:05:58.967Z,10.37
2018-11-11T21:08:05.249Z,8.67
2018-11-11T21:10:12.026Z,5.60
2018-11-11T21:12:14.386Z,8.27
2018-11-11T21:14:16.791Z,10.73
2018-11-11T21:16:19.037Z,11.07
2018-11-11T21:18:22.139Z,7.07
2018-11-11T21:20:26.088Z,8.57
2018-11-11T21:22:29.651Z,8.30
2018-11-11T21:24:32.227Z,6.47
2018-11-11T21:26:38.010Z,7.00
2018-11-11T21:28:43.304Z,8.40
2018-11-11T21:30:46.703Z,11.53
2018-11-11T21:32:49.450Z,9.60
2018-11-11T21:34:51.670Z,6.93
2018-11-11T21:36:54.010Z,7.30
2018-11-11T21:38:56.177Z,8.23
2018-11-11T21:40:58.414Z,9.00
2018-11-11T21:43:00.586Z,10.37
2018-11-11T21:45:02.905Z,11.50
2018-11-11T21:47:05.726Z,8.33
2018-11-11T21:49:07.989Z,6.73
2018-11-11T21:51:10.239Z,7.50
2018-11-11T21:53:44.539Z,10.63
2018-11-11T21:55:46.801Z,11.30
2018-11-11T21:57:48.989Z,6.93
2018-11-11T21:59:51.263Z,7.60
2018-11-11T22:01:53.449Z,6.67
2018-11-11T22:03:55.613Z,7.33
2018-11-11T22:05:57.820Z,10.33
2018-11-11T22:08:00.039Z,8.80
2018-11-11T22:10:02.461Z,7.63
2018-11-11T22:12:04.801Z,13.70
2018-11-11T22:14:07.653Z,8.50
2018-11-11T22:16:09.960Z,7.17
2018-11-11T22:18:12.106Z,9.77
2018-11-11T22:20:14.292Z,7.93
2018-11-11T22:22:16.568Z,7.20
2018-11-11T22:24:18.987Z,7.37
2018-11-11T22:26:21.204Z,11.23
2018-11-11T22:28:23.454Z,8.47
2018-11-11T22:30:25.696Z,9.57
2018-11-11T22:32:27.869Z,8.83
2018-11-11T22:34:30.058Z,7.80
2018-11-11T22:36:32.298Z,8.50
2018-11-11T22:38:34.569Z,6.53
2018-11-11T22:40:36.781Z,8.00
2018-11-11T22:42:39.190Z,7.20
2018-11-11T22:44:41.365Z,8.23
2018-11-11T22:46:43.623Z,10.20
2018-11-11T22:48:45.857Z,9.60
2018-11-11T22:50:48.041Z,9.57
2018-11-11T22:52:50.377Z,10.00
2018-11-11T22:54:52.638Z,8.60
2018-11-11T22:56:54.898Z,10.57
2018-11-11T22:58:57.197Z,10.23
2018-11-11T23:01:05.045Z,12.00
2018-11-11T23:03:07.231Z,13.53
2018-11-11T23:05:09.443Z,13.23
2018-11-11T23:07:11.626Z,7.80
2018-11-11T23:09:13.803Z,11.07
2018-11-11T23:11:16.480Z,11.63
2018-11-11T23:13:18.696Z,8.93
2018-11-11T23:17:52.652Z,11.07
2018-11-11T23:19:54.924Z,12.13
2018-11-11T23:21:57.090Z,10.90
2018-11-11T23:23:59.253Z,8.73
2018-11-11T23:26:01.603Z,11.40
2018-11-11T23:28:04.316Z,11.43
2018-11-11T23:30:07.893Z,10.40
2018-11-11T23:32:10.074Z,8.13
2018-11-11T23:34:12.378Z,8.47
2018-11-11T23:36:14.622Z,10.63
2018-11-11T23:38:16.773Z,7.90
2018-11-11T23:40:19.305Z,12.93
2018-11-11T23:42:22.455Z,7.90
2018-11-11T23:44:24.619Z,13.83
2018-11-11T23:46:26.813Z,11.07
2018-11-11T23:48:30.073Z,6.87
2018-11-11T23:50:32.226Z,13.00
2018-11-11T23:52:34.630Z,12.33
2018-11-11T23:54:36.786Z,8.07
2018-11-11T23:56:38.934Z,7.07
2018-11-11T23:58:41.116Z,7.63
